createdAt,value
2019-05-03T00:02:17.833Z,10.30
2019-05-03T00:04:45.531Z,10.32
2019-05-03T00:07:11.831Z,10.39
2019-05-03T00:09:37.735Z,10.44
2019-05-03T00:12:03.554Z,10.43
2019-05-03T00:14:32.371Z,10.54
2019-05-03T00:16:58.206Z,10.53
2019-05-03T00:19:24.274Z,10.49
2019-05-03T00:21:50.072Z,10.50
2019-05-03T00:24:16.137Z,10.57
2019-05-03T00:26:42.363Z,10.67
2019-05-03T00:29:08.398Z,10.76
2019-05-03T00:31:34.463Z,10.79
2019-05-03T00:34:05.018Z,10.87
2019-05-03T00:36:48.198Z,10.88
2019-05-03T00:39:15.881Z,10.90
2019-05-03T00:41:42.581Z,10.93
2019-05-03T00:44:08.493Z,10.92
2019-05-03T00:46:34.548Z,10.96
2019-05-03T00:49:00.643Z,10.99
2019-05-03T00:51:26.472Z,10.96
2019-05-03T00:53:53.065Z,10.91
2019-05-03T00:56:19.053Z,10.54
2019-05-03T00:58:49.580Z,10.89
2019-05-03T01:01:16.490Z,10.84
2019-05-03T01:03:42.300Z,10.96
2019-05-03T01:06:08.376Z,10.87
2019-05-03T01:08:34.166Z,10.87
2019-05-03T01:11:01.994Z,10.82
2019-05-03T01:13:27.653Z,10.70
2019-05-03T01:16:02.761Z,10.73
2019-05-03T01:18:28.680Z,10.70
2019-05-03T01:20:54.476Z,10.68
2019-05-03T01:23:21.917Z,10.51
2019-05-03T01:25:47.881Z,10.59
2019-05-03T01:28:13.692Z,10.60
2019-05-03T01:30:39.735Z,10.57
2019-05-03T01:33:05.531Z,10.54
2019-05-03T01:35:32.257Z,10.60
2019-05-03T01:37:58.136Z,10.31
2019-05-03T01:40:24.203Z,10.74
2019-05-03T01:42:51.818Z,10.67
2019-05-03T01:45:17.982Z,10.62
2019-05-03T01:47:48.745Z,10.69
2019-05-03T01:50:32.092Z,10.73
2019-05-03T01:53:02.825Z,10.63
2019-05-03T01:55:47.338Z,10.64
2019-05-03T01:58:13.401Z,10.56
2019-05-03T02:00:39.217Z,10.55
2019-05-03T02:03:07.180Z,10.47
2019-05-03T02:05:43.857Z,10.51
2019-05-03T02:08:12.553Z,10.55
2019-05-03T02:10:38.471Z,10.58
2019-05-03T02:13:04.599Z,10.55
2019-05-03T02:15:30.414Z,10.55
2019-05-03T02:17:56.201Z,10.53
2019-05-03T02:20:22.240Z,10.63
2019-05-03T02:22:48.322Z,10.61
2019-05-03T02:25:14.374Z,10.57
2019-05-03T02:27:42.348Z,10.52
2019-05-03T02:30:08.320Z,10.55
2019-05-03T02:32:34.369Z,10.62
2019-05-03T02:35:02.739Z,10.67
2019-05-03T02:37:28.494Z,10.66
2019-05-03T02:39:55.228Z,10.69
2019-05-03T02:42:21.027Z,10.64
2019-05-03T02:44:46.804Z,10.55
2019-05-03T02:47:31.209Z,10.56
2019-05-03T02:49:58.907Z,10.55
2019-05-03T02:52:36.581Z,10.51
2019-05-03T02:55:06.098Z,10.60
2019-05-03T02:57:31.875Z,10.56
2019-05-03T02:59:57.652Z,10.54
2019-05-03T03:02:26.402Z,10.55
2019-05-03T03:04:51.824Z,10.49
2019-05-03T03:07:17.946Z,10.50
2019-05-03T03:09:45.238Z,10.46
2019-05-03T03:12:11.551Z,10.49
2019-05-03T03:14:38.670Z,10.45
2019-05-03T03:17:06.761Z,10.16
2019-05-03T03:19:35.302Z,10.38
2019-05-03T03:22:05.946Z,10.33
2019-05-03T03:24:32.381Z,10.43
2019-05-03T03:26:58.274Z,10.35
2019-05-03T03:29:26.470Z,10.26
2019-05-03T03:32:10.437Z,10.30
2019-05-03T03:34:40.059Z,10.35
2019-05-03T03:37:10.361Z,10.39
2019-05-03T03:39:36.086Z,10.39
2019-05-03T03:42:05.131Z,10.44
2019-05-03T03:44:30.272Z,10.52
2019-05-03T03:46:57.305Z,10.47
2019-05-03T03:49:26.155Z,10.49
2019-05-03T03:51:52.268Z,10.54
2019-05-03T03:54:18.995Z,10.43
2019-05-03T03:56:59.283Z,10.54
2019-05-03T03:59:26.725Z,10.61
2019-05-03T04:01:55.110Z,10.50
2019-05-03T04:04:21.967Z,10.41
2019-05-03T04:06:48.949Z,10.36
2019-05-03T04:09:16.046Z,10.45
2019-05-03T04:11:42.096Z,10.43
2019-05-03T04:14:09.909Z,10.39
2019-05-03T04:16:38.312Z,10.50
2019-05-03T04:19:13.117Z,10.50
2019-05-03T04:21:39.002Z,10.48
2019-05-03T04:24:05.939Z,10.43
2019-05-03T04:26:32.281Z,10.47
2019-05-03T04:28:58.722Z,10.37
2019-05-03T04:31:26.106Z,10.40
2019-05-03T04:33:52.137Z,10.55
2019-05-03T04:36:17.931Z,10.51
2019-05-03T04:38:45.316Z,10.59
2019-05-03T04:41:11.330Z,10.63
2019-05-03T04:43:37.360Z,10.59
2019-05-03T04:46:08.316Z,10.57
2019-05-03T04:48:35.784Z,10.64
2019-05-03T04:51:02.169Z,10.64
2019-05-03T04:53:28.913Z,10.64
2019-05-03T04:55:55.899Z,10.66
2019-05-03T04:58:21.802Z,10.58
2019-05-03T05:00:47.581Z,10.62
2019-05-03T05:03:15.045Z,10.69
2019-05-03T05:05:41.067Z,10.68
2019-05-03T05:08:06.899Z,10.71
2019-05-03T05:10:32.659Z,10.71
2019-05-03T05:12:58.475Z,10.71
2019-05-03T05:15:26.519Z,10.60
2019-05-03T05:17:56.127Z,10.53
2019-05-03T05:20:24.803Z,10.50
2019-05-03T05:22:50.982Z,10.35
2019-05-03T05:25:21.751Z,10.35
2019-05-03T05:27:58.052Z,10.34
2019-05-03T05:30:25.179Z,10.25
2019-05-03T05:32:51.159Z,10.13
2019-05-03T05:35:17.007Z,10.15
2019-05-03T05:37:44.421Z,10.16
2019-05-03T05:40:10.317Z,10.13
2019-05-03T05:42:36.375Z,10.13
2019-05-03T05:45:04.976Z,10.13
2019-05-03T05:47:34.495Z,10.14
2019-05-03T05:50:02.407Z,9.99
2019-05-03T05:52:28.200Z,9.89
2019-05-03T05:54:56.205Z,9.75
2019-05-03T05:57:25.611Z,9.60
2019-05-03T05:59:56.172Z,9.58
2019-05-03T06:02:22.221Z,9.65
2019-05-03T06:04:48.038Z,9.51
2019-05-03T06:07:28.121Z,9.46
2019-05-03T06:09:55.831Z,9.32
2019-05-03T06:12:38.830Z,9.14
2019-05-03T06:15:07.541Z,9.24
2019-05-03T06:17:35.472Z,9.29
2019-05-03T06:20:22.306Z,9.36
2019-05-03T06:22:50.268Z,9.40
2019-05-03T06:25:27.016Z,9.39
2019-05-03T06:27:54.867Z,9.34
2019-05-03T06:30:22.425Z,9.41
2019-05-03T06:32:48.537Z,9.51
2019-05-03T06:35:15.214Z,9.44
2019-05-03T06:37:45.882Z,9.44
2019-05-03T06:40:12.412Z,9.43
2019-05-03T06:42:50.952Z,9.56
2019-05-03T06:45:10.472Z,9.70
2019-05-03T06:47:34.858Z,9.66
2019-05-03T06:50:00.744Z,9.60
2019-05-03T06:52:29.341Z,9.45
2019-05-03T06:54:55.362Z,9.47
2019-05-03T06:57:21.217Z,9.56
2019-05-03T06:59:48.934Z,9.59
2019-05-03T07:02:22.345Z,9.62
2019-05-03T07:04:50.054Z,9.56
2019-05-03T07:07:29.968Z,9.57
2019-05-03T07:10:06.426Z,9.62
2019-05-03T07:12:51.158Z,9.68
2019-05-03T07:15:25.176Z,9.68
2019-05-03T07:17:55.607Z,9.64
2019-05-03T07:20:21.720Z,9.69
2019-05-03T07:22:47.538Z,9.71
2019-05-03T07:25:14.962Z,9.71
2019-05-03T07:27:45.227Z,9.79
2019-05-03T07:30:11.806Z,9.91
2019-05-03T07:32:39.011Z,10.08
2019-05-03T07:35:05.140Z,10.07
2019-05-03T07:37:31.254Z,10.14
2019-05-03T07:39:57.029Z,10.27
2019-05-03T07:42:23.070Z,10.11
2019-05-03T07:44:48.844Z,10.16
2019-05-03T07:47:14.927Z,10.24
2019-05-03T07:49:44.704Z,10.25
2019-05-03T07:52:11.835Z,10.16
2019-05-03T07:54:37.845Z,10.30
2019-05-03T07:57:05.809Z,10.56
2019-05-03T07:59:35.684Z,10.69
2019-05-03T08:02:01.531Z,10.82
2019-05-03T08:04:27.314Z,11.00
2019-05-03T08:06:54.916Z,11.02
2019-05-03T08:09:24.641Z,11.32
2019-05-03T08:11:50.539Z,11.66
2019-05-03T08:14:18.300Z,11.98
2019-05-03T08:16:45.635Z,12.36
2019-05-03T08:19:11.853Z,12.41
2019-05-03T08:21:38.970Z,12.68
2019-05-03T08:24:05.507Z,13.12
2019-05-03T08:26:31.298Z,13.04
2019-05-03T08:28:57.101Z,12.87
2019-05-03T08:31:37.564Z,12.98
2019-05-03T08:34:06.006Z,13.11
2019-05-03T08:36:36.837Z,13.34
2019-05-03T08:39:05.447Z,13.50
2019-05-03T08:41:35.173Z,13.55
2019-05-03T08:44:01.064Z,13.47
2019-05-03T08:46:26.855Z,13.50
2019-05-03T08:48:54.854Z,13.85
2019-05-03T08:51:20.863Z,13.61
2019-05-03T08:53:46.679Z,13.59
2019-05-03T08:56:12.764Z,13.88
2019-05-03T08:58:38.572Z,14.01
2019-05-03T09:01:05.675Z,14.17
2019-05-03T09:03:31.730Z,14.16
2019-05-03T09:05:57.511Z,13.91
2019-05-03T09:08:24.889Z,13.71
2019-05-03T09:10:55.940Z,13.83
2019-05-03T09:13:22.044Z,13.95
2019-05-03T09:15:49.728Z,13.91
2019-05-03T09:18:17.475Z,14.13
2019-05-03T09:20:44.821Z,14.23
2019-05-03T09:23:10.787Z,14.15
2019-05-03T09:25:36.593Z,14.64
2019-05-03T09:28:04.733Z,15.16
2019-05-03T09:30:30.717Z,14.27
2019-05-03T09:32:56.618Z,14.99
2019-05-03T09:35:30.553Z,15.42
2019-05-03T09:37:50.354Z,15.38
2019-05-03T09:40:16.157Z,15.44
2019-05-03T09:42:41.950Z,15.20
2019-05-03T09:45:08.665Z,15.15
2019-05-03T09:47:35.345Z,15.07
2019-05-03T09:50:02.352Z,14.96
2019-05-03T09:52:28.516Z,14.64
2019-05-03T09:54:56.214Z,14.51
2019-05-03T09:57:22.004Z,14.15
2019-05-03T09:59:56.471Z,14.00
2019-05-03T10:02:15.746Z,13.90
2019-05-03T10:04:41.565Z,13.98
2019-05-03T10:07:07.368Z,14.06
2019-05-03T10:09:35.196Z,14.32
2019-05-03T10:12:01.841Z,14.64
2019-05-03T10:14:27.622Z,14.78
2019-05-03T10:16:55.313Z,14.67
2019-05-03T10:19:34.109Z,14.82
2019-05-03T10:21:49.313Z,14.70
2019-05-03T10:24:15.297Z,14.78
2019-05-03T10:26:41.117Z,15.34
2019-05-03T10:29:07.240Z,15.66
2019-05-03T10:31:38.029Z,15.80
2019-05-03T10:34:05.834Z,15.84
2019-05-03T10:36:31.908Z,16.14
2019-05-03T10:38:57.987Z,16.39
2019-05-03T10:41:25.112Z,16.62
2019-05-03T10:43:51.528Z,16.74
2019-05-03T10:46:17.309Z,16.20
2019-05-03T10:48:45.133Z,16.23
2019-05-03T10:51:10.840Z,15.93
2019-05-03T10:53:38.523Z,15.64
2019-05-03T10:56:22.781Z,15.41
2019-05-03T10:58:59.757Z,14.85
2019-05-03T11:01:30.201Z,14.59
2019-05-03T11:03:56.018Z,14.45
2019-05-03T11:06:21.810Z,14.29
2019-05-03T11:08:47.833Z,14.08
2019-05-03T11:11:15.112Z,13.89
2019-05-03T11:13:41.050Z,14.28
2019-05-03T11:16:06.942Z,14.65
2019-05-03T11:18:34.549Z,14.97
2019-05-03T11:21:00.671Z,15.11
2019-05-03T11:23:26.685Z,15.41
2019-05-03T11:25:52.493Z,15.71
2019-05-03T11:28:20.199Z,15.96
2019-05-03T11:30:53.627Z,16.40
2019-05-03T11:33:15.997Z,16.49
2019-05-03T11:35:44.712Z,16.69
2019-05-03T11:38:14.948Z,16.74
2019-05-03T11:40:40.429Z,16.95
2019-05-03T11:43:06.328Z,16.92
2019-05-03T11:45:32.149Z,16.41
2019-05-03T11:47:58.206Z,16.27
2019-05-03T11:50:25.327Z,16.04
2019-05-03T11:52:51.389Z,15.43
2019-05-03T11:55:17.410Z,15.83
2019-05-03T11:57:45.019Z,16.41
2019-05-03T12:00:14.752Z,17.20
2019-05-03T12:02:44.776Z,17.09
2019-05-03T12:05:18.068Z,17.31
2019-05-03T12:07:45.540Z,17.94
2019-05-03T12:10:26.921Z,17.67
2019-05-03T12:12:41.141Z,16.35
2019-05-03T12:15:06.939Z,16.23
2019-05-03T12:17:35.368Z,16.44
2019-05-03T12:20:05.009Z,16.40
2019-05-03T12:22:31.801Z,16.68
2019-05-03T12:24:58.528Z,17.47
2019-05-03T12:27:25.046Z,17.26
2019-05-03T12:29:52.444Z,16.91
2019-05-03T12:32:18.357Z,16.92
2019-05-03T12:34:44.401Z,16.87
2019-05-03T12:37:10.202Z,16.99
2019-05-03T12:39:36.107Z,16.75
2019-05-03T12:42:01.968Z,16.31
2019-05-03T12:44:27.762Z,15.57
2019-05-03T12:46:53.534Z,16.12
2019-05-03T12:49:19.351Z,16.91
2019-05-03T12:51:45.412Z,17.29
2019-05-03T12:54:11.222Z,17.47
2019-05-03T12:56:37.322Z,17.41
2019-05-03T12:59:15.922Z,17.33
2019-05-03T13:01:56.069Z,17.20
2019-05-03T13:04:24.859Z,17.15
2019-05-03T13:06:59.630Z,17.20
2019-05-03T13:09:25.437Z,17.22
2019-05-03T13:11:58.934Z,17.08
2019-05-03T13:14:26.882Z,17.17
2019-05-03T13:16:55.071Z,17.46
2019-05-03T13:19:20.951Z,17.48
2019-05-03T13:21:46.772Z,17.37
2019-05-03T13:24:22.837Z,17.45
2019-05-03T13:26:40.558Z,17.70
2019-05-03T13:29:06.374Z,17.70
2019-05-03T13:31:32.183Z,17.71
2019-05-03T13:33:58.235Z,17.70
2019-05-03T13:36:27.018Z,17.76
2019-05-03T13:38:55.902Z,17.72
2019-05-03T13:41:25.029Z,17.72
2019-05-03T13:43:50.901Z,17.75
2019-05-03T13:46:16.671Z,18.03
2019-05-03T13:48:45.930Z,18.16
2019-05-03T13:51:14.735Z,18.08
2019-05-03T13:53:40.661Z,18.02
2019-05-03T13:56:06.479Z,17.96
2019-05-03T13:58:32.641Z,17.81
2019-05-03T14:00:58.736Z,17.80
2019-05-03T14:03:24.522Z,17.54
2019-05-03T14:05:50.522Z,17.38
2019-05-03T14:08:19.765Z,17.04
2019-05-03T14:10:45.808Z,17.04
2019-05-03T14:13:11.638Z,16.97
2019-05-03T14:15:37.439Z,17.12
2019-05-03T14:18:10.915Z,17.21
2019-05-03T14:20:55.220Z,17.66
2019-05-03T14:23:21.383Z,17.73
2019-05-03T14:25:47.187Z,17.86
2019-05-03T14:28:14.582Z,18.04
2019-05-03T14:30:40.468Z,17.82
2019-05-03T14:33:06.563Z,17.49
2019-05-03T14:35:34.518Z,17.24
2019-05-03T14:38:00.070Z,17.47
2019-05-03T14:40:26.144Z,17.38
2019-05-03T14:42:51.966Z,17.33
2019-05-03T14:45:18.079Z,17.84
2019-05-03T14:47:43.902Z,18.70
2019-05-03T14:50:10.641Z,18.70
2019-05-03T14:52:36.470Z,18.62
2019-05-03T14:55:14.772Z,17.93
2019-05-03T14:57:51.633Z,18.11
2019-05-03T15:00:19.464Z,18.03
2019-05-03T15:02:50.915Z,18.03
2019-05-03T15:05:15.412Z,18.18
2019-05-03T15:07:41.182Z,18.18
2019-05-03T15:10:07.214Z,18.14
2019-05-03T15:12:35.404Z,17.66
2019-05-03T15:15:01.071Z,18.11
2019-05-03T15:17:27.150Z,19.02
2019-05-03T15:19:54.729Z,19.50
2019-05-03T15:22:20.641Z,19.42
2019-05-03T15:24:46.425Z,19.42
2019-05-03T15:27:12.229Z,19.15
2019-05-03T15:29:38.054Z,18.68
2019-05-03T15:32:05.010Z,19.00
2019-05-03T15:34:31.075Z,19.46
2019-05-03T15:36:57.091Z,19.47
2019-05-03T15:39:22.911Z,18.59
2019-05-03T15:41:48.714Z,18.59
2019-05-03T15:44:16.713Z,18.21
2019-05-03T15:46:45.035Z,17.27
2019-05-03T15:49:10.996Z,16.99
2019-05-03T15:51:37.007Z,16.99
2019-05-03T15:54:04.553Z,16.80
2019-05-03T15:56:30.655Z,16.61
2019-05-03T15:58:56.455Z,16.55
2019-05-03T16:01:22.253Z,16.43
2019-05-03T16:03:48.053Z,16.58
2019-05-03T16:06:15.517Z,16.36
2019-05-03T16:08:41.784Z,16.53
2019-05-03T16:11:07.591Z,16.64
2019-05-03T16:13:35.130Z,16.53
2019-05-03T16:16:01.119Z,16.26
2019-05-03T16:18:26.938Z,16.27
2019-05-03T16:20:54.628Z,16.32
2019-05-03T16:23:20.710Z,16.32
2019-05-03T16:25:46.534Z,16.30
2019-05-03T16:28:15.217Z,16.15
2019-05-03T16:30:43.002Z,15.93
2019-05-03T16:33:08.777Z,15.89
2019-05-03T16:35:37.606Z,16.00
2019-05-03T16:38:02.912Z,15.67
2019-05-03T16:40:29.008Z,16.46
2019-05-03T16:42:54.802Z,16.68
2019-05-03T16:45:20.856Z,16.88
2019-05-03T16:47:46.896Z,16.74
2019-05-03T16:50:14.523Z,16.85
2019-05-03T16:52:40.386Z,16.66
2019-05-03T16:55:06.266Z,16.69
2019-05-03T16:57:32.083Z,16.37
2019-05-03T16:59:58.144Z,16.15
2019-05-03T17:02:24.575Z,16.01
2019-05-03T17:04:52.433Z,15.97
2019-05-03T17:07:36.829Z,15.94
2019-05-03T17:10:25.416Z,15.87
2019-05-03T17:12:51.105Z,15.74
2019-05-03T17:15:17.382Z,15.75
2019-05-03T17:17:45.175Z,15.42
2019-05-03T17:20:11.238Z,15.35
2019-05-03T17:22:37.802Z,15.33
2019-05-03T17:25:06.394Z,15.30
2019-05-03T17:27:31.997Z,15.32
2019-05-03T17:29:57.887Z,15.05
2019-05-03T17:32:24.565Z,15.09
2019-05-03T17:34:50.463Z,15.01
2019-05-03T17:37:16.251Z,15.03
2019-05-03T17:40:03.126Z,15.14
2019-05-03T17:42:47.481Z,15.03
2019-05-03T17:45:15.290Z,14.93
2019-05-03T17:47:41.137Z,14.72
2019-05-03T17:50:07.021Z,14.34
2019-05-03T17:52:51.658Z,14.34
2019-05-03T17:55:19.637Z,14.38
2019-05-03T17:57:47.658Z,14.41
2019-05-03T18:00:24.561Z,14.26
2019-05-03T18:02:50.771Z,14.34
2019-05-03T18:05:35.768Z,14.31
2019-05-03T18:08:15.637Z,14.14
2019-05-03T18:10:43.347Z,14.06
2019-05-03T18:13:09.150Z,13.99
2019-05-03T18:15:34.973Z,13.89
2019-05-03T18:18:01.128Z,13.87
2019-05-03T18:20:26.923Z,13.76
2019-05-03T18:22:54.698Z,13.73
2019-05-03T18:25:20.639Z,13.73
2019-05-03T18:27:46.805Z,13.59
2019-05-03T18:30:13.393Z,13.53
2019-05-03T18:32:39.486Z,13.29
2019-05-03T18:35:05.809Z,13.22
2019-05-03T18:37:31.701Z,13.07
2019-05-03T18:39:57.693Z,12.95
2019-05-03T18:42:44.819Z,12.91
2019-05-03T18:45:18.773Z,12.86
2019-05-03T18:47:45.080Z,12.84
2019-05-03T18:50:11.061Z,12.68
2019-05-03T18:52:37.146Z,12.56
2019-05-03T18:55:04.551Z,12.55
2019-05-03T18:57:30.600Z,12.67
2019-05-03T18:59:56.705Z,12.28
2019-05-03T19:02:24.260Z,12.79
2019-05-03T19:04:52.092Z,12.91
2019-05-03T19:07:36.549Z,12.91
2019-05-03T19:10:18.405Z,12.81
2019-05-03T19:12:58.025Z,12.78
2019-05-03T19:15:25.156Z,12.56
2019-05-03T19:17:59.355Z,12.49
2019-05-03T19:20:25.439Z,12.36
2019-05-03T19:22:54.429Z,12.37
2019-05-03T19:25:20.349Z,12.36
2019-05-03T19:27:46.389Z,12.38
2019-05-03T19:30:14.875Z,12.38
2019-05-03T19:32:40.816Z,12.29
2019-05-03T19:35:06.803Z,12.27
2019-05-03T19:37:32.685Z,12.26
2019-05-03T19:39:58.512Z,12.22
2019-05-03T19:42:24.807Z,11.66
2019-05-03T19:44:52.032Z,12.09
2019-05-03T19:47:17.842Z,11.87
2019-05-03T19:49:45.429Z,11.69
2019-05-03T19:52:14.483Z,11.53
2019-05-03T19:54:40.577Z,11.59
2019-05-03T19:57:06.381Z,11.41
2019-05-03T19:59:49.221Z,11.26
2019-05-03T20:02:20.146Z,11.26
2019-05-03T20:05:06.118Z,11.32
2019-05-03T20:07:34.701Z,11.26
2019-05-03T20:10:00.875Z,11.32
2019-05-03T20:12:26.962Z,11.41
2019-05-03T20:14:54.603Z,11.55
2019-05-03T20:17:20.720Z,11.60
2019-05-03T20:19:46.792Z,11.64
2019-05-03T20:22:12.610Z,11.67
2019-05-03T20:24:38.421Z,11.77
2019-05-03T20:27:04.790Z,11.81
2019-05-03T20:29:30.561Z,11.73
2019-05-03T20:31:56.606Z,11.69
2019-05-03T20:34:22.421Z,11.49
2019-05-03T20:36:48.204Z,11.40
2019-05-03T20:39:14.833Z,11.49
2019-05-03T20:41:40.701Z,11.53
2019-05-03T20:44:14.780Z,11.55
2019-05-03T20:46:45.504Z,11.48
2019-05-03T20:49:14.991Z,11.40
2019-05-03T20:51:40.914Z,11.27
2019-05-03T20:54:06.820Z,11.19
2019-05-03T20:56:32.686Z,11.07
2019-05-03T20:58:58.514Z,10.93
2019-05-03T21:01:25.666Z,10.79
2019-05-03T21:03:51.482Z,10.65
2019-05-03T21:06:17.308Z,10.75
2019-05-03T21:08:52.205Z,10.80
2019-05-03T21:11:10.799Z,10.93
2019-05-03T21:13:41.886Z,10.90
2019-05-03T21:16:06.222Z,10.77
2019-05-03T21:18:34.482Z,10.74
2019-05-03T21:21:14.833Z,10.76
2019-05-03T21:23:51.763Z,10.83
2019-05-03T21:26:17.562Z,10.70
2019-05-03T21:28:44.934Z,10.69
2019-05-03T21:31:10.940Z,10.39
2019-05-03T21:33:36.756Z,10.21
2019-05-03T21:36:04.667Z,10.25
2019-05-03T21:38:30.870Z,10.29
2019-05-03T21:40:56.680Z,10.36
2019-05-03T21:43:22.477Z,10.32
2019-05-03T21:45:50.412Z,10.27
2019-05-03T21:48:20.654Z,10.18
2019-05-03T21:50:46.750Z,10.02
2019-05-03T21:53:14.594Z,9.99
2019-05-03T21:55:40.515Z,10.00
2019-05-03T21:58:06.572Z,9.90
2019-05-03T22:00:34.364Z,9.88
2019-05-03T22:03:00.575Z,9.78
2019-05-03T22:05:26.659Z,9.71
2019-05-03T22:07:52.483Z,9.57
2019-05-03T22:10:18.271Z,9.51
2019-05-03T22:12:44.050Z,9.38
2019-05-03T22:15:27.105Z,9.29
2019-05-03T22:17:57.860Z,9.23
2019-05-03T22:20:25.593Z,9.20
2019-05-03T22:23:02.208Z,9.30
2019-05-03T22:25:30.195Z,9.42
2019-05-03T22:27:55.985Z,9.42
2019-05-03T22:30:21.773Z,9.49
2019-05-03T22:32:47.610Z,9.63
2019-05-03T22:35:15.590Z,9.58
2019-05-03T22:37:41.388Z,9.54
2019-05-03T22:40:07.440Z,9.47
2019-05-03T22:42:34.576Z,9.60
2019-05-03T22:45:00.456Z,9.65
2019-05-03T22:47:26.516Z,9.72
2019-05-03T22:49:54.646Z,9.69
2019-05-03T22:52:19.989Z,9.71
2019-05-03T22:54:46.049Z,9.73
2019-05-03T22:57:11.851Z,9.67
2019-05-03T22:59:37.635Z,9.68
2019-05-03T23:02:03.697Z,9.77
2019-05-03T23:04:29.466Z,9.89
2019-05-03T23:06:55.812Z,9.95
2019-05-03T23:09:21.689Z,10.06
2019-05-03T23:11:47.484Z,10.10
2019-05-03T23:14:15.109Z,10.11
2019-05-03T23:16:41.014Z,10.18
2019-05-03T23:19:06.820Z,10.24
2019-05-03T23:21:34.500Z,10.28
2019-05-03T23:24:00.304Z,10.20
2019-05-03T23:26:26.101Z,10.06
2019-05-03T23:28:51.882Z,9.80
2019-05-03T23:31:17.698Z,9.82
2019-05-03T23:33:45.211Z,9.83
2019-05-03T23:36:11.269Z,9.79
2019-05-03T23:38:37.085Z,9.79
2019-05-03T23:41:04.789Z,9.87
2019-05-03T23:43:30.665Z,10.02
2019-05-03T23:45:56.716Z,10.13
2019-05-03T23:48:22.541Z,10.21
2019-05-03T23:50:48.318Z,10.19
2019-05-03T23:53:15.385Z,10.14
2019-05-03T23:55:49.100Z,10.06
2019-05-03T23:58:14.910Z,10.04
